• Join FlightAware (Why Join?)
  • Login
  • US Flag 
04:31PM EDT


 

Airport Tracker/Info


-or-


 

Live Flight TrackerFlight Track Log ✈ CSN6861 ✈ 14-Jan-2014 ✈ ZWWW / URC - ZWAK / AKU

Flight Track Log - Related Links

Times and Time Zones

All times are in EST time to prevent confusion due to time zone crossing. See the CSN6861 flight status page for this flight to view local times or setup timezone preferences in your user account.

Time Position Orientation Groundspeed Altitude Reporting Facility
EST Latitude Longitude Course Direction KTS MPH feet Rate Location/Type
08:04PM 43.5808 86.4808 246° West  Level Estimated
08:05PM 43.5394 86.3573 245° Southwest  Level Estimated
08:06PM 43.4979 86.2341 245° Southwest  Level Estimated
08:07PM 43.4562 86.1110 245° Southwest  Level Estimated
08:08PM 43.4144 85.9881 245° Southwest  Level Estimated
08:09PM 43.3725 85.8653 245° Southwest  Level Estimated
08:10PM 43.3305 85.7427 245° Southwest  Level Estimated
08:11PM 43.2883 85.6203 245° Southwest  Level Estimated
08:12PM 43.2460 85.4981 245° Southwest  Level Estimated
08:13PM 43.2035 85.3760 245° Southwest  Level Estimated
08:14PM 43.1610 85.2541 244° Southwest  Level Estimated
08:15PM 43.1183 85.1324 244° Southwest  Level Estimated
08:16PM 43.0754 85.0108 244° Southwest  Level Estimated
08:17PM 43.0325 84.8894 244° Southwest  Level Estimated
08:18PM 42.9894 84.7682 244° Southwest  Level Estimated
08:19PM 42.9462 84.6472 244° Southwest  Level Estimated
08:20PM 42.9028 84.5263 244° Southwest  Level Estimated
08:21PM 42.8594 84.4056 244° Southwest  Level Estimated
08:22PM 42.8158 84.2850 244° Southwest  Level Estimated
08:23PM 42.7721 84.1647 244° Southwest  Level Estimated
08:24PM 42.7282 84.0445 244° Southwest  Level Estimated
08:25PM 42.6842 83.9244 244° Southwest  Level Estimated
08:26PM 42.6401 83.8046 243° Southwest  Level Estimated
08:27PM 42.5959 83.6849 243° Southwest  Level Estimated
08:28PM 42.5516 83.5654 243° Southwest  Level Estimated
08:29PM 42.5071 83.4460 243° Southwest  Level Estimated
08:30PM 42.4625 83.3268 243° Southwest  Level Estimated
08:31PM 42.4178 83.2078 243° Southwest  Level Estimated
08:32PM 42.3730 83.0890 243° Southwest  Level Estimated
08:33PM 42.3280 82.9703 243° Southwest  Level Estimated
08:34PM 42.2829 82.8518 243° Southwest  Level Estimated
08:35PM 42.2377 82.7335 243° Southwest  Level Estimated
08:36PM 42.1924 82.6153 243° Southwest  Level Estimated
08:37PM 42.1469 82.4973 243° Southwest  Level Estimated
08:38PM 42.1013 82.3795 242° Southwest  Level Estimated
08:39PM 42.0556 82.2619 242° Southwest  Level Estimated
08:40PM 42.0098 82.1444 242° Southwest  Level Estimated
08:41PM 41.9639 82.0271 242° Southwest  Level Estimated
08:42PM 41.9179 81.9099 242° Southwest  Level Estimated
08:43PM 41.8717 81.7930 242° Southwest  Level Estimated
08:44PM 41.8254 81.6762 242° Southwest  Level Estimated
08:45PM 41.7790 81.5595 242° Southwest  Level Estimated
08:46PM 41.7325 81.4431 242° Southwest  Level Estimated
08:47PM 41.6858 81.3268 242° Southwest  Level Estimated
08:48PM 41.6391 81.2106 242° Southwest  Level Estimated
08:49PM 41.5922 81.0947 242° Southwest  Level Estimated
08:50PM 41.5452 80.9789 242° Southwest  Level Estimated
08:51PM 41.4981 80.8633 241° Southwest  Level Estimated
08:52PM 41.4509 80.7478 241° Southwest  Level Estimated
08:53PM 41.4035 80.6325 241° Southwest  Level Estimated
08:54PM 41.3561 80.5174 241° Southwest  Level Estimated
08:55PM 41.3085 80.4025 241° Southwest  Level Estimated
08:56PM 41.2625 80.2917 241° Southwest  Level Estimated
08:57PM 41.2625 80.2917 270° West  Level Estimated
08:58PM 41.2625 80.2917 270° West  Level Estimated
08:59PM 41.2625 80.2917 270° West  Level Estimated
09:00PM 41.2625 80.2917 270° West  Level Estimated
09:01PM 41.2625 80.2917 270° West  Level Estimated
09:02PM 41.2625 80.2917 270° West  Level Estimated
09:03PM 41.2625 80.2917 270° West  Level Estimated
09:04PM 41.2625 80.2917 270° West  Level Estimated
09:05PM 41.2625 80.2917 270° West  Level Estimated
09:06PM 41.2625 80.2917 270° West  Level Estimated